Portada
METAR-TAF:

METAR-TAF

Aeropuertos :

Aeropuerto de Gaspé

Gaspé, Quebec, Canadá

latitud: 48-46N, longitud: 064-29W, altitud: 33 m

Observación

El informe se hizo hace 43 minutos, a las 22:00 UTC
Viento 11 kt del noroeste
Temperatura -7°C
Humedad 38%
Presión 1019 hPa
Visibilidad: 24.1 km
Cielo despejado

METAR: CYGP 222200Z 31011KT 15SM SKC M07/M19 A3010 RMK SLP196

Hora: 17:43 (22:43 UTC)

Pronóstico

El informe se hizo hace 3 horas y 5 minutos, a las 19:38 UTC
Pronóstico válido del 22 a las 20 UTC al 23 a las 08 UTC
Viento 12 kt del noroeste con ráfagas de 22 kt
Visibilidad: 10 km
Cielo despejado
Evolucionando progresivamente
del 22 a las 23 UTC al 23 a las 01 UTC
Viento 8 kt del oeste

TAF: CYGP 221938Z 2220/2308 31012G22KT P6SM SKC BECMG 2223/2301 28008KT RMK NXT FCST BY 230200Z

Observaciones y pronósticos meteorológicos de más de 4000 aeropuertos (mensajes METAR y TAF).

Los puntos amarillos y rojos representan las estaciones disponibles.

Ponga el ratón en el punto deseado para ver el nombre de la estación.

Haga clic para ver las observaciones y los pronósticos meteorológicos.

Para cambiar el mapa : haga clic en los botones verdes con una cruz de color negro para hacer un zoom, en el botón verde con un guión para alejar o en las flechas verdes para mapas adyacentes.


METAR-TAF: